Terminal Aerodrome Forecast
Issued by NWS Wichita, KS

Home | Current Version | Previous Version | Text Only | Print | Product List | Glossary Off
Versions: 1 2 3 4 5 6 7 8 9 10 11 12 13 14 15

000
FTUS43 KICT 211740
TAFICT
TAF
KICT 211740Z 2118/2218 18018G26KT P6SM FEW250
     FM220200 17013KT P6SM FEW070 FEW250
     FM220900 17009KT P6SM FEW250=

USA.gov is the U.S. government's official web portal to all federal, state and local government web resources and services.